Time;durP1;ratioP1;P1;durP2;ratioP2;P2;SDS_P1;SDS_P2;PMS_P1;PMS_P2;Temp;Humidity;BMP_temperature;BMP_pressure;BME280_temperature;BME280_humidity;BME280_pressure;Samples;Min_cycle;Max_cycle;Signal;HPM_P1;HPM_P2
2023/04/02 00:00:10;;;;;;;24.10;18.00;;;10.10;67.20;;;;;;4670962;30;114596;-83
2023/04/02 00:03:02;;;;;;;24.95;18.48;;;10.10;67.30;;;;;;4699322;29;114893;-83
2023/04/02 00:05:49;;;;;;;22.42;14.73;;;10.20;67.10;;;;;;4696127;29;115334;-83
2023/04/02 00:08:28;;;;;;;18.17;13.68;;;10.10;67.00;;;;;;4670899;30;116582;-82
2023/04/02 00:11:01;;;;;;;18.52;12.93;;;10.10;67.00;;;;;;4685057;30;119117;-82
2023/04/02 00:13:37;;;;;;;18.55;12.90;;;10.00;66.90;;;;;;4687165;30;114923;-83
2023/04/02 00:16:11;;;;;;;16.92;13.75;;;10.10;66.80;;;;;;4689361;29;115364;-83
2023/04/02 00:18:52;;;;;;;21.92;14.75;;;10.10;66.90;;;;;;4672145;30;115113;-82
2023/04/02 00:21:32;;;;;;;18.23;15.02;;;10.00;66.80;;;;;;4684816;29;115401;-83
2023/04/02 00:24:09;;;;;;;19.15;16.38;;;10.00;66.80;;;;;;4698573;29;114509;-84
2023/04/02 00:26:40;;;;;;;19.50;16.08;;;10.00;66.70;;;;;;4656038;30;118145;-84
2023/04/02 00:29:09;;;;;;;16.55;13.88;;;10.00;66.70;;;;;;4669829;30;116794;-84
2023/04/02 00:31:40;;;;;;;18.25;13.73;;;10.00;66.70;;;;;;4670635;29;114445;-83
2023/04/02 00:34:13;;;;;;;15.27;12.48;;;10.00;66.70;;;;;;4684560;30;114553;-83
2023/04/02 00:36:43;;;;;;;15.18;11.60;;;9.90;66.80;;;;;;4669032;30;118994;-85
2023/04/02 00:39:24;;;;;;;13.55;11.25;;;10.00;66.80;;;;;;4670473;30;114491;-84
2023/04/02 00:42:05;;;;;;;14.32;10.73;;;10.00;67.00;;;;;;4670155;30;114664;-85
2023/04/02 00:44:45;;;;;;;14.70;10.93;;;9.90;67.00;;;;;;4673172;29;114584;-83
2023/04/02 00:47:36;;;;;;;15.20;10.82;;;9.90;67.00;;;;;;4670553;29;119015;-84
2023/04/02 00:50:13;;;;;;;15.57;11.23;;;9.90;67.00;;;;;;4684185;30;114685;-83
2023/04/02 00:52:42;;;;;;;14.82;11.93;;;9.90;67.20;;;;;;4699428;29;115104;-84
2023/04/02 00:55:14;;;;;;;16.15;12.38;;;9.90;67.20;;;;;;4671160;29;114873;-84
2023/04/02 00:57:42;;;;;;;17.40;12.60;;;9.90;67.40;;;;;;4698041;29;119129;-85
2023/04/02 01:00:20;;;;;;;16.58;13.32;;;9.80;67.40;;;;;;4683985;29;116642;-83
2023/04/02 01:03:15;;;;;;;17.52;13.98;;;9.90;67.70;;;;;;4699210;29;114782;-82
2023/04/02 01:06:00;;;;;;;19.20;14.35;;;9.90;67.50;;;;;;4684501;30;114599;-82
2023/04/02 01:08:45;;;;;;;19.13;14.60;;;9.80;67.70;;;;;;4670918;30;115221;-83
2023/04/02 01:11:17;;;;;;;18.85;13.80;;;9.90;67.70;;;;;;4697952;29;115310;-83
2023/04/02 01:14:00;;;;;;;19.00;14.65;;;9.80;67.70;;;;;;4684152;30;114555;-82
2023/04/02 01:16:30;;;;;;;22.98;15.23;;;9.90;67.90;;;;;;4699169;29;115111;-83
2023/04/02 01:19:26;;;;;;;20.50;14.77;;;9.80;67.80;;;;;;4683482;30;117043;-83
2023/04/02 01:22:33;;;;;;;19.38;14.88;;;9.90;67.90;;;;;;4698692;29;115302;-83
2023/04/02 01:25:03;;;;;;;21.13;14.82;;;9.80;68.10;;;;;;4651360;30;114635;-83
2023/04/02 01:27:44;;;;;;;20.67;15.38;;;9.70;68.20;;;;;;4669864;29;116490;-83
2023/04/02 01:30:13;;;;;;;21.17;15.30;;;9.80;68.30;;;;;;4685924;29;119196;-82
2023/04/02 01:32:40;;;;;;;19.50;16.00;;;9.70;68.30;;;;;;4686655;29;117609;-84
2023/04/02 01:35:08;;;;;;;22.23;16.15;;;9.80;68.40;;;;;;4672752;30;119841;-83
2023/04/02 01:37:55;;;;;;;22.63;15.15;;;9.70;68.60;;;;;;4672838;29;114643;-83
2023/04/02 01:41:05;;;;;;;20.92;15.05;;;9.80;68.80;;;;;;4671383;30;118287;-84
2023/04/02 01:43:50;;;;;;;23.80;16.02;;;9.70;68.80;;;;;;4682995;30;115297;-85
2023/04/02 01:46:28;;;;;;;19.17;14.98;;;9.70;68.90;;;;;;4686713;29;115019;-84
2023/04/02 01:48:56;;;;;;;20.70;16.33;;;9.70;69.00;;;;;;4687127;30;114605;-83
2023/04/02 01:51:44;;;;;;;22.00;15.65;;;9.70;68.80;;;;;;4686138;30;116039;-85
2023/04/02 01:54:14;;;;;;;20.02;16.00;;;9.70;68.80;;;;;;4671440;30;119194;-85
2023/04/02 01:56:42;;;;;;;20.58;15.93;;;9.70;69.00;;;;;;4672582;30;114619;-86
2023/04/02 01:59:19;;;;;;;19.88;15.07;;;9.70;69.10;;;;;;4673533;29;114752;-84
2023/04/02 02:02:21;;;;;;;22.02;16.30;;;9.70;69.20;;;;;;4674430;30;117364;-84
2023/04/02 02:04:49;;;;;;;21.15;16.20;;;9.70;68.80;;;;;;4693359;30;116501;-86
2023/04/02 02:07:19;;;;;;;21.05;16.35;;;9.70;69.20;;;;;;4672260;30;114637;-84
2023/04/02 02:09:51;;;;;;;24.02;16.75;;;9.70;69.40;;;;;;4672945;30;114534;-85
2023/04/02 02:12:18;;;;;;;21.08;16.33;;;9.70;69.30;;;;;;4685742;29;118452;-85
2023/04/02 02:14:47;;;;;;;21.77;16.35;;;9.70;69.30;;;;;;4671042;30;118336;-83
2023/04/02 02:17:25;;;;;;;23.20;17.38;;;9.70;69.50;;;;;;4672434;30;114834;-85
2023/04/02 02:19:55;;;;;;;21.55;16.33;;;9.70;69.70;;;;;;4670638;30;114533;-85
2023/04/02 02:22:29;;;;;;;23.55;17.38;;;9.70;69.70;;;;;;4670206;30;115264;-84
2023/04/02 02:25:14;;;;;;;22.95;18.23;;;9.70;69.70;;;;;;4686256;30;117648;-84
2023/04/02 02:27:45;;;;;;;22.25;16.80;;;9.70;69.80;;;;;;4672275;30;114675;-85
2023/04/02 02:30:37;;;;;;;23.65;16.73;;;9.70;69.80;;;;;;4701309;29;114511;-85
2023/04/02 02:33:14;;;;;;;23.08;17.15;;;9.70;70.10;;;;;;4671041;30;118728;-85
2023/04/02 02:36:01;;;;;;;23.13;18.52;;;9.60;70.10;;;;;;4685625;30;118164;-85
2023/04/02 02:38:57;;;;;;;22.45;17.13;;;9.70;70.10;;;;;;4673686;29;114571;-85
2023/04/02 02:41:49;;;;;;;20.55;16.75;;;9.70;70.30;;;;;;4689332;29;115215;-83
2023/04/02 02:44:25;;;;;;;22.63;17.73;;;9.60;70.50;;;;;;4662847;29;115253;-83
2023/04/02 02:47:24;;;;;;;22.80;16.95;;;9.60;70.60;;;;;;4675588;29;114867;-84
2023/04/02 02:49:55;;;;;;;21.10;17.40;;;9.60;70.60;;;;;;4692365;29;114572;-84
2023/04/02 02:52:29;;;;;;;22.67;17.50;;;9.60;70.50;;;;;;4676745;29;114610;-83
2023/04/02 02:55:14;;;;;;;21.73;16.23;;;9.50;70.50;;;;;;4678301;29;117447;-83
2023/04/02 02:58:09;;;;;;;20.10;16.17;;;9.50;70.60;;;;;;4680862;29;114760;-84
2023/04/02 03:00:46;;;;;;;21.80;16.67;;;9.50;70.50;;;;;;4691678;29;114736;-84
2023/04/02 03:03:20;;;;;;;21.02;16.25;;;9.60;70.50;;;;;;4674186;29;114841;-85
2023/04/02 03:06:01;;;;;;;24.77;17.17;;;9.60;70.40;;;;;;4675979;29;115446;-85
2023/04/02 03:08:35;;;;;;;23.27;17.83;;;9.60;70.40;;;;;;4674470;29;114902;-84
2023/04/02 03:11:49;;;;;;;23.45;17.30;;;9.60;70.40;;;;;;4690375;29;114681;-84
2023/04/02 03:14:37;;;;;;;22.47;17.40;;;9.60;70.60;;;;;;4708612;29;114949;-84
2023/04/02 03:17:32;;;;;;;22.02;17.90;;;9.60;70.60;;;;;;4688985;29;117743;-84
2023/04/02 03:20:19;;;;;;;22.92;17.95;;;9.60;70.80;;;;;;4685223;29;114680;-85
2023/04/02 03:23:05;;;;;;;20.45;16.23;;;9.60;70.70;;;;;;4690729;29;114587;-84
2023/04/02 03:25:50;;;;;;;20.40;16.42;;;9.60;70.80;;;;;;4689048;29;114687;-85
2023/04/02 03:28:27;;;;;;;23.08;16.98;;;9.60;70.80;;;;;;4702413;29;115122;-85
2023/04/02 03:31:08;;;;;;;19.75;16.58;;;9.60;70.80;;;;;;4674477;29;117848;-85
2023/04/02 03:33:51;;;;;;;20.63;17.23;;;9.70;70.70;;;;;;4675319;29;117653;-85
2023/04/02 03:36:33;;;;;;;21.73;17.35;;;9.70;70.50;;;;;;4676199;29;114739;-84
2023/04/02 03:39:22;;;;;;;19.73;15.98;;;9.60;70.40;;;;;;4674745;29;117009;-84
2023/04/02 03:42:01;;;;;;;19.50;16.42;;;9.70;70.20;;;;;;4687870;29;116929;-84
2023/04/02 03:44:38;;;;;;;21.50;17.90;;;9.70;70.40;;;;;;4688981;29;115859;-84
2023/04/02 03:48:15;;;;;;;20.27;15.98;;;9.70;70.40;;;;;;4689500;29;115056;-85
2023/04/02 03:50:59;;;;;;;21.17;16.58;;;9.70;69.90;;;;;;4697983;29;117194;-84
2023/04/02 03:53:28;;;;;;;;;;;9.60;70.30;;;;;;4681442;29;114855;-84
2023/04/02 03:55:55;;;;;;;25.00;18.33;;;9.60;69.70;;;;;;4674003;29;114615;-85
2023/04/02 03:58:33;;;;;;;28.13;18.58;;;9.50;70.50;;;;;;4674157;29;114601;-83
2023/04/02 04:01:25;;;;;;;32.22;20.25;;;9.60;70.40;;;;;;4674233;29;117702;-84
2023/04/02 04:03:53;;;;;;;31.38;20.52;;;9.60;70.50;;;;;;4701768;29;116482;-84
2023/04/02 04:06:29;;;;;;;27.63;18.90;;;9.60;70.40;;;;;;4674556;29;114886;-84
2023/04/02 04:09:05;;;;;;;29.38;21.27;;;9.70;70.50;;;;;;4675109;29;114868;-83
2023/04/02 04:11:35;;;;;;;27.55;19.90;;;9.60;70.60;;;;;;4702735;29;116233;-84
2023/04/02 04:14:29;;;;;;;30.17;21.27;;;9.70;70.70;;;;;;4673822;29;114883;-84
2023/04/02 04:17:23;;;;;;;31.98;20.25;;;9.70;70.70;;;;;;4689516;29;114811;-85
2023/04/02 04:20:10;;;;;;;32.72;21.55;;;9.70;70.90;;;;;;4676586;29;117984;-85
2023/04/02 04:22:37;;;;;;;29.05;18.98;;;9.70;70.80;;;;;;4701106;29;115687;-86
2023/04/02 04:25:28;;;;;;;32.75;21.25;;;9.60;70.60;;;;;;4674716;29;117953;-85
2023/04/02 04:28:23;;;;;;;32.53;21.33;;;9.60;70.80;;;;;;4677375;29;114595;-85
2023/04/02 04:31:16;;;;;;;34.03;21.52;;;9.70;70.60;;;;;;4689338;29;114511;-87
2023/04/02 04:33:49;;;;;;;31.92;20.60;;;9.60;70.70;;;;;;4676123;29;115136;-86
2023/04/02 04:36:52;;;;;;;35.50;20.77;;;9.60;70.70;;;;;;4688947;29;117147;-86
2023/04/02 04:39:41;;;;;;;33.15;20.02;;;9.60;70.60;;;;;;4705050;29;114797;-86
2023/04/02 04:42:19;;;;;;;34.10;20.98;;;9.60;70.70;;;;;;4664018;29;114712;-86
2023/04/02 04:44:56;;;;;;;29.98;20.33;;;9.60;70.70;;;;;;4683619;30;115174;-87
2023/04/02 04:48:01;;;;;;;33.80;22.50;;;9.60;70.90;;;;;;4683820;30;118292;-87
2023/04/02 04:50:49;;;;;;;28.37;19.30;;;9.70;70.80;;;;;;4681925;30;114761;-86
2023/04/02 04:53:22;;;;;;;31.80;21.48;;;9.70;71.10;;;;;;4684905;30;115010;-86
2023/04/02 04:56:03;;;;;;;29.23;19.77;;;9.60;71.10;;;;;;4699147;29;114827;-85
2023/04/02 04:59:14;;;;;;;25.30;17.75;;;9.60;71.10;;;;;;4686431;30;118185;-86
2023/04/02 05:02:11;;;;;;;28.20;18.73;;;9.70;71.00;;;;;;4659128;30;114822;-84
2023/04/02 05:04:41;;;;;;;28.98;20.63;;;9.60;71.20;;;;;;4699502;29;114636;-83
2023/04/02 05:07:35;;;;;;;25.20;17.23;;;9.60;71.20;;;;;;4687525;30;115742;-84
2023/04/02 05:10:28;;;;;;;25.60;18.33;;;9.70;71.10;;;;;;4683926;30;115530;-83
2023/04/02 05:13:19;;;;;;;26.40;17.65;;;9.70;71.10;;;;;;4659540;30;114605;-83
2023/04/02 05:16:25;;;;;;;24.45;18.25;;;9.60;71.10;;;;;;4678423;30;115116;-83
2023/04/02 05:19:33;;;;;;;23.67;18.13;;;9.70;71.10;;;;;;4685019;30;115183;-84
2023/04/02 05:22:43;;;;;;;26.27;19.85;;;9.70;70.70;;;;;;4684647;30;114857;-84
2023/04/02 05:25:19;;;;;;;24.48;19.05;;;9.70;70.90;;;;;;4684791;29;114765;-86
2023/04/02 05:28:20;;;;;;;24.38;18.63;;;9.70;71.00;;;;;;4701694;29;114788;-84
2023/04/02 05:31:25;;;;;;;23.40;17.52;;;9.70;70.90;;;;;;4682543;30;115294;-85
2023/04/02 05:33:53;;;;;;;23.90;18.17;;;9.70;70.80;;;;;;4698370;29;118323;-84
2023/04/02 05:36:28;;;;;;;25.25;19.77;;;9.70;70.70;;;;;;4686866;30;114744;-83
2023/04/02 05:38:58;;;;;;;26.48;19.05;;;9.80;70.70;;;;;;4715166;29;114625;-85
2023/04/02 05:41:46;;;;;;;24.45;18.38;;;9.80;70.50;;;;;;4700253;29;116669;-83
2023/04/02 05:44:33;;;;;;;24.40;18.17;;;9.80;70.60;;;;;;4672407;30;117798;-83
2023/04/02 05:47:20;;;;;;;26.67;19.13;;;9.80;70.40;;;;;;4664267;30;114593;-83
2023/04/02 05:50:00;;;;;;;25.48;18.50;;;9.80;70.40;;;;;;4686454;30;114643;-83
2023/04/02 05:52:33;;;;;;;24.38;18.42;;;9.80;70.40;;;;;;4685588;29;118424;-83
2023/04/02 05:55:15;;;;;;;24.58;18.30;;;9.80;70.40;;;;;;4670175;30;115105;-84
2023/04/02 05:57:50;;;;;;;23.05;18.20;;;9.90;70.40;;;;;;4698663;29;114845;-84
2023/04/02 06:00:56;;;;;;;24.08;18.33;;;9.80;70.40;;;;;;4682827;30;114944;-84
2023/04/02 06:03:38;;;;;;;23.45;16.98;;;9.90;70.50;;;;;;4684567;29;118736;-83
2023/04/02 06:06:33;;;;;;;24.33;17.92;;;9.90;71.40;;;;;;4684757;29;116845;-83
2023/04/02 06:09:07;;;;;;;30.70;22.33;;;9.80;71.70;;;;;;4680899;30;119399;-83
2023/04/02 06:11:48;;;;;;;31.90;23.30;;;9.80;71.50;;;;;;4684641;30;116456;-83
2023/04/02 06:14:17;;;;;;;27.95;22.45;;;9.80;71.00;;;;;;4684227;30;118744;-83
2023/04/02 06:16:46;;;;;;;28.75;22.75;;;9.70;71.10;;;;;;4669451;30;118151;-83
2023/04/02 06:19:25;;;;;;;26.10;19.50;;;9.70;71.10;;;;;;4701594;29;114892;-83
2023/04/02 06:21:52;;;;;;;18.00;14.20;;;9.70;71.20;;;;;;4687567;30;114910;-82
2023/04/02 06:24:23;;;;;;;14.40;10.77;;;9.50;71.00;;;;;;4685646;30;116580;-82
2023/04/02 06:27:01;;;;;;;11.85;9.35;;;9.50;71.00;;;;;;4671208;30;114608;-82
2023/04/02 06:29:39;;;;;;;10.02;7.95;;;9.40;71.20;;;;;;4664108;30;114778;-82
2023/04/02 06:32:32;;;;;;;8.27;6.10;;;9.20;71.10;;;;;;4672146;30;114664;-82
2023/04/02 06:35:03;;;;;;;7.38;5.72;;;9.00;71.00;;;;;;4688020;30;118515;-82
2023/04/02 06:37:37;;;;;;;7.63;6.00;;;8.90;71.00;;;;;;4668124;30;115303;-82
2023/04/02 06:40:36;;;;;;;9.43;6.78;;;8.80;71.50;;;;;;4702362;29;114847;-84
2023/04/02 06:43:35;;;;;;;8.10;5.70;;;8.70;71.40;;;;;;4700080;29;114588;-84
2023/04/02 06:46:48;;;;;;;7.30;5.83;;;8.50;71.30;;;;;;4690004;29;119719;-82
2023/04/02 06:49:37;;;;;;;7.88;6.10;;;8.20;71.30;;;;;;4672252;29;116924;-84
2023/04/02 06:52:47;;;;;;;10.27;7.47;;;8.10;71.50;;;;;;4692873;29;114513;-83
2023/04/02 06:55:46;;;;;;;8.60;6.70;;;8.10;71.50;;;;;;4678969;29;114696;-83
2023/04/02 06:58:17;;;;;;;7.70;6.55;;;7.90;71.10;;;;;;4721219;29;115521;-82
2023/04/02 07:00:48;;;;;;;8.80;6.57;;;7.70;71.00;;;;;;4690187;29;114605;-83
2023/04/02 07:03:29;;;;;;;9.00;7.15;;;7.70;70.90;;;;;;4670767;29;114818;-82
2023/04/02 07:06:01;;;;;;;9.27;6.90;;;7.50;70.60;;;;;;4681890;29;114801;-82
2023/04/02 07:08:31;;;;;;;6.80;5.75;;;7.40;70.70;;;;;;4702132;29;115699;-83
2023/04/02 07:10:58;;;;;;;10.88;9.05;;;7.20;70.80;;;;;;4702755;29;115148;-83
2023/04/02 07:13:26;;;;;;;11.60;8.95;;;7.20;71.20;;;;;;4718878;29;114538;-81
2023/04/02 07:15:55;;;;;;;13.05;11.65;;;7.10;71.30;;;;;;4719200;29;115034;-82
2023/04/02 07:18:28;;;;;;;12.18;10.45;;;7.10;71.70;;;;;;4703399;29;115721;-82
2023/04/02 07:20:58;;;;;;;10.75;9.50;;;7.10;71.80;;;;;;4717054;29;115240;-83
2023/04/02 07:23:38;;;;;;;11.70;9.93;;;7.10;71.50;;;;;;4719369;29;114842;-83
2023/04/02 07:26:06;;;;;;;11.02;9.82;;;7.00;71.80;;;;;;4695164;29;115309;-82
2023/04/02 07:28:33;;;;;;;9.93;8.13;;;7.00;71.70;;;;;;4704833;29;114840;-82
2023/04/02 07:31:01;;;;;;;12.13;9.18;;;7.00;71.60;;;;;;4694028;29;114754;-82
2023/04/02 07:33:31;;;;;;;8.88;7.07;;;7.00;71.70;;;;;;4693058;29;114744;-82
2023/04/02 07:36:01;;;;;;;8.77;7.30;;;6.90;71.30;;;;;;4693245;29;114460;-82
2023/04/02 07:38:30;;;;;;;9.02;7.00;;;6.90;71.50;;;;;;4689315;29;118828;-84
2023/04/02 07:40:57;;;;;;;12.45;9.57;;;6.90;71.40;;;;;;4693357;29;114929;-84
2023/04/02 07:43:25;;;;;;;11.85;9.88;;;6.80;71.60;;;;;;4680151;29;114780;-83
2023/04/02 07:45:55;;;;;;;11.23;8.43;;;6.80;71.50;;;;;;4712273;29;117099;-83
2023/04/02 07:48:22;;;;;;;9.70;8.32;;;6.90;71.70;;;;;;4694684;29;115298;-82
2023/04/02 07:50:50;;;;;;;8.27;6.53;;;6.90;71.90;;;;;;4679663;29;117027;-82
2023/04/02 07:53:29;;;;;;;8.50;6.45;;;6.90;71.70;;;;;;4680346;29;114662;-82
2023/04/02 07:56:00;;;;;;;8.35;5.43;;;7.00;71.60;;;;;;4679155;29;118177;-82
2023/04/02 07:58:30;;;;;;;11.48;9.00;;;6.90;71.30;;;;;;4683004;29;117182;-82
2023/04/02 08:00:59;;;;;;;7.97;6.18;;;6.90;71.10;;;;;;4710194;29;114764;-80
2023/04/02 08:03:26;;;;;;;10.15;8.45;;;6.80;70.70;;;;;;4695213;29;114501;-81
2023/04/02 08:05:56;;;;;;;10.57;8.18;;;6.80;70.60;;;;;;4712800;29;115071;-82
2023/04/02 08:08:25;;;;;;;8.32;6.13;;;6.80;70.70;;;;;;4712627;29;114899;-82
2023/04/02 08:10:54;;;;;;;9.93;6.60;;;6.70;70.50;;;;;;4709562;29;114815;-82
2023/04/02 08:13:21;;;;;;;10.40;7.10;;;6.70;70.50;;;;;;4696648;29;114637;-83
2023/04/02 08:15:50;;;;;;;9.18;7.00;;;6.60;70.80;;;;;;4695707;29;114600;-83
2023/04/02 08:18:17;;;;;;;13.55;10.05;;;6.60;70.80;;;;;;4694013;29;115277;-81
2023/04/02 08:20:44;;;;;;;13.27;10.95;;;6.60;70.80;;;;;;4681195;29;114762;-80
2023/04/02 08:23:15;;;;;;;14.40;10.88;;;6.60;70.80;;;;;;4711065;29;114536;-81
2023/04/02 08:25:46;;;;;;;10.43;8.20;;;6.60;70.80;;;;;;4710724;29;114595;-81
2023/04/02 08:28:15;;;;;;;9.45;6.50;;;6.60;71.00;;;;;;4711264;29;115312;-80
2023/04/02 08:30:43;;;;;;;9.30;5.57;;;6.60;70.90;;;;;;4680806;29;117543;-82
2023/04/02 08:33:11;;;;;;;8.45;6.30;;;6.70;70.80;;;;;;4715823;29;115756;-83
2023/04/02 08:35:38;;;;;;;9.63;6.22;;;6.70;70.50;;;;;;4713562;29;115906;-82
2023/04/02 08:38:07;;;;;;;7.97;5.43;;;6.60;70.00;;;;;;4698129;29;114848;-83
2023/04/02 08:40:37;;;;;;;7.40;5.43;;;6.60;69.80;;;;;;4715401;29;114672;-81
2023/04/02 08:43:40;;;;;;;8.32;5.45;;;6.50;69.50;;;;;;4684091;29;114743;-82
2023/04/02 08:46:36;;;;;;;7.80;5.10;;;6.50;69.60;;;;;;4701091;29;114857;-82
2023/04/02 08:49:14;;;;;;;8.02;5.43;;;6.40;70.00;;;;;;4705088;29;115118;-82
2023/04/02 08:51:41;;;;;;;7.50;5.15;;;6.40;69.70;;;;;;4677063;29;114772;-82
2023/04/02 08:54:36;;;;;;;8.68;5.63;;;6.40;69.40;;;;;;4701984;29;114676;-82
2023/04/02 08:57:23;;;;;;;;;;;6.30;69.20;;;;;;4704007;29;119517;-82
2023/04/02 09:00:09;;;;;;;7.93;5.07;;;6.20;69.10;;;;;;4704693;29;115302;-82
2023/04/02 09:02:45;;;;;;;6.88;4.95;;;6.00;69.40;;;;;;4704436;29;118158;-82
2023/04/02 09:05:22;;;;;;;8.15;5.72;;;6.00;69.50;;;;;;4690111;29;114673;-82
2023/04/02 09:07:51;;;;;;;7.43;5.10;;;6.00;69.60;;;;;;4686694;29;114853;-80
2023/04/02 09:10:19;;;;;;;7.32;5.10;;;6.00;69.90;;;;;;4703354;29;115297;-82
2023/04/02 09:12:51;;;;;;;7.95;6.15;;;6.10;69.80;;;;;;4669199;29;114789;-83
2023/04/02 09:15:32;;;;;;;7.53;5.00;;;6.10;69.60;;;;;;4707193;29;114821;-81
2023/04/02 09:18:16;;;;;;;7.32;4.88;;;6.10;69.20;;;;;;4715832;29;114610;-82
2023/04/02 09:20:44;;;;;;;6.35;4.45;;;6.10;69.00;;;;;;4703844;29;115402;-82
2023/04/02 09:23:18;;;;;;;7.03;5.45;;;6.00;69.00;;;;;;4705385;29;114755;-81
2023/04/02 09:25:48;;;;;;;6.35;4.28;;;6.10;68.80;;;;;;4690298;29;114659;-82
2023/04/02 09:28:30;;;;;;;6.70;3.95;;;6.00;68.30;;;;;;4704805;29;114579;-81
2023/04/02 09:31:28;;;;;;;5.72;3.55;;;5.90;68.40;;;;;;4702453;29;115379;-82
2023/04/02 09:33:57;;;;;;;5.90;3.40;;;6.00;68.40;;;;;;4704573;29;115181;-82
2023/04/02 09:36:33;;;;;;;4.93;3.33;;;5.90;68.30;;;;;;4719422;29;114639;-82
2023/04/02 09:39:16;;;;;;;5.32;3.40;;;5.90;68.60;;;;;;4687253;29;115130;-81
2023/04/02 09:41:44;;;;;;;7.03;4.03;;;5.90;68.30;;;;;;4686722;29;115414;-81
2023/04/02 09:44:26;;;;;;;24.50;4.70;;;5.90;68.20;;;;;;4700107;29;114843;-82
2023/04/02 09:47:23;;;;;;;26.10;5.25;;;5.90;68.30;;;;;;4690432;29;114694;-82
2023/04/02 09:49:51;;;;;;;14.68;5.47;;;5.90;68.10;;;;;;4707023;29;114955;-82
2023/04/02 09:52:28;;;;;;;49.15;10.65;;;5.90;68.00;;;;;;4703640;29;115490;-82
2023/04/02 09:55:23;;;;;;;21.73;6.65;;;5.80;68.10;;;;;;4703490;29;118121;-82
2023/04/02 09:57:50;;;;;;;10.35;5.40;;;5.80;68.40;;;;;;4704356;29;114626;-82
2023/04/02 10:00:21;;;;;;;10.88;6.10;;;5.80;68.00;;;;;;4690164;29;114906;-82
2023/04/02 10:03:25;;;;;;;18.95;8.40;;;5.80;67.90;;;;;;4702826;29;116668;-81
2023/04/02 10:06:10;;;;;;;16.48;6.50;;;5.80;68.00;;;;;;4697706;29;115194;-82
2023/04/02 10:08:40;;;;;;;8.07;6.60;;;5.80;68.30;;;;;;4704145;29;115721;-82
2023/04/02 10:11:29;;;;;;;10.27;8.70;;;5.80;68.50;;;;;;4688729;29;114573;-81
2023/04/02 10:14:19;;;;;;;11.27;9.75;;;6.00;67.90;;;;;;4702827;29;115168;-81
2023/04/02 10:16:51;;;;;;;;;;;5.90;68.30;;;;;;4675044;29;114866;-80
2023/04/02 10:19:25;;;;;;;12.63;8.95;;;5.90;68.20;;;;;;4689612;29;114522;-81
2023/04/02 10:21:54;;;;;;;11.18;9.15;;;5.90;68.60;;;;;;4705034;29;114593;-80
2023/04/02 10:24:21;;;;;;;11.35;8.38;;;6.00;68.70;;;;;;4688386;29;115388;-81
2023/04/02 10:27:28;;;;;;;12.82;9.68;;;6.10;68.40;;;;;;4703229;29;114857;-80
2023/04/02 10:30:18;;;;;;;14.90;12.75;;;6.20;68.00;;;;;;4703316;29;114807;-81
2023/04/02 10:32:47;;;;;;;14.43;11.70;;;6.10;68.20;;;;;;4689138;29;114595;-81
2023/04/02 10:35:19;;;;;;;16.17;13.75;;;6.00;68.10;;;;;;4702550;29;115271;-81
2023/04/02 10:37:55;;;;;;;18.88;15.98;;;6.00;67.90;;;;;;4698263;29;117843;-82
2023/04/02 10:41:00;;;;;;;24.15;18.73;;;5.80;67.90;;;;;;4704689;29;114681;-82
2023/04/02 10:43:57;;;;;;;29.48;22.85;;;5.80;68.40;;;;;;4703819;29;114656;-83
2023/04/02 10:46:50;;;;;;;30.35;23.73;;;5.80;68.50;;;;;;4682381;29;118633;-82
2023/04/02 10:49:45;;;;;;;33.15;25.13;;;5.80;68.70;;;;;;4702935;29;114813;-82
2023/04/02 10:52:36;;;;;;;31.92;24.40;;;5.70;68.80;;;;;;4704504;29;114668;-83
2023/04/02 10:55:29;;;;;;;32.35;23.88;;;5.70;68.90;;;;;;4717827;29;114620;-82
2023/04/02 10:57:59;;;;;;;33.00;25.02;;;5.70;69.20;;;;;;4663451;29;115263;-82
2023/04/02 11:00:32;;;;;;;38.13;25.85;;;5.70;69.30;;;;;;4688405;29;115266;-83
2023/04/02 11:03:12;;;;;;;39.75;27.67;;;5.70;69.20;;;;;;4687428;29;114626;-82
2023/04/02 11:05:47;;;;;;;38.45;28.00;;;5.70;69.20;;;;;;4674759;29;114812;-82
2023/04/02 11:08:43;;;;;;;37.97;27.70;;;5.70;69.20;;;;;;4688871;29;118465;-82
2023/04/02 11:11:21;;;;;;;44.25;29.55;;;5.60;69.30;;;;;;4703276;29;117886;-83
2023/04/02 11:14:10;;;;;;;42.30;29.70;;;5.60;69.40;;;;;;4695688;29;114524;-81
2023/04/02 11:16:37;;;;;;;41.47;28.67;;;5.60;69.60;;;;;;4703242;29;115200;-81
2023/04/02 11:19:16;;;;;;;41.03;30.75;;;5.50;69.30;;;;;;4702253;29;115341;-81
2023/04/02 11:21:46;;;;;;;42.10;29.63;;;5.50;69.60;;;;;;4702486;29;116482;-82
2023/04/02 11:24:33;;;;;;;37.78;28.38;;;5.50;70.00;;;;;;4703946;29;117217;-82
2023/04/02 11:27:04;;;;;;;34.25;26.55;;;5.60;69.80;;;;;;4703220;29;114667;-82
2023/04/02 11:29:33;;;;;;;33.92;25.38;;;5.60;69.60;;;;;;4701321;29;117510;-80
2023/04/02 11:32:19;;;;;;;32.80;24.27;;;5.50;69.70;;;;;;4687716;29;114877;-83
2023/04/02 11:34:50;;;;;;;36.55;26.88;;;5.70;69.70;;;;;;4704171;29;115354;-81
2023/04/02 11:37:43;;;;;;;33.22;24.85;;;5.60;69.80;;;;;;4702866;29;115006;-82
2023/04/02 11:40:11;;;;;;;32.45;23.98;;;5.70;69.70;;;;;;4688088;29;116144;-82
2023/04/02 11:42:46;;;;;;;32.72;23.73;;;5.70;69.50;;;;;;4715385;29;114949;-82
2023/04/02 11:45:38;;;;;;;;;;;;;;;;;;;;;
2023/04/02 11:48:21;;;;;;;;;;;5.70;69.40;;;;;;4706625;29;114886;-81
2023/04/02 11:50:55;;;;;;;33.90;25.42;;;5.60;69.10;;;;;;4705239;29;119004;-80
2023/04/02 11:53:32;;;;;;;36.40;26.85;;;5.50;69.40;;;;;;4705910;29;114715;-81
2023/04/02 11:56:22;;;;;;;35.50;27.08;;;5.60;69.60;;;;;;4706132;29;114409;-81
2023/04/02 11:59:25;;;;;;;32.60;23.63;;;5.70;69.50;;;;;;4693630;29;115080;-82
2023/04/02 12:02:24;;;;;;;34.10;25.42;;;5.60;69.30;;;;;;4706527;29;116382;-82
2023/04/02 12:05:17;;;;;;;33.72;26.33;;;5.70;69.20;;;;;;4706106;29;114625;-83
2023/04/02 12:08:21;;;;;;;33.00;24.23;;;5.70;69.10;;;;;;4678329;29;115054;-83
2023/04/02 12:10:59;;;;;;;26.17;21.47;;;5.70;69.20;;;;;;4706027;29;114667;-83
2023/04/02 12:13:53;;;;;;;27.10;21.50;;;5.70;68.70;;;;;;4721099;29;115359;-82
2023/04/02 12:16:20;;;;;;;17.93;14.77;;;5.70;68.40;;;;;;4689059;29;115380;-82
2023/04/02 12:18:55;;;;;;;21.77;16.85;;;5.70;68.20;;;;;;4691417;29;114569;-82
2023/04/02 12:21:26;;;;;;;18.08;14.95;;;5.70;68.00;;;;;;4706925;29;114631;-82
2023/04/02 12:23:57;;;;;;;16.85;12.27;;;5.70;67.80;;;;;;4690730;29;115376;-83
2023/04/02 12:26:37;;;;;;;14.02;11.07;;;5.70;67.50;;;;;;4690267;29;114754;-82
2023/04/02 12:29:35;;;;;;;14.02;10.90;;;5.70;67.60;;;;;;4691207;29;119425;-83
2023/04/02 12:32:02;;;;;;;16.75;12.70;;;5.70;67.50;;;;;;4710759;29;114959;-82
2023/04/02 12:34:30;;;;;;;17.05;14.10;;;5.70;67.70;;;;;;4719468;29;115187;-82
2023/04/02 12:37:01;;;;;;;15.27;12.43;;;5.70;67.70;;;;;;4676369;29;117435;-82
2023/04/02 12:39:30;;;;;;;14.35;11.82;;;5.90;67.20;;;;;;4705964;29;114812;-82
2023/04/02 12:41:58;;;;;;;15.50;13.50;;;5.90;67.10;;;;;;4699891;29;114812;-83
2023/04/02 12:44:29;;;;;;;16.10;13.02;;;5.90;67.00;;;;;;4685028;30;115779;-82
2023/04/02 12:46:57;;;;;;;16.05;14.35;;;6.00;66.90;;;;;;4685593;30;114761;-82
2023/04/02 12:49:41;;;;;;;15.50;13.60;;;6.00;66.70;;;;;;4684573;30;114731;-83
2023/04/02 12:52:15;;;;;;;18.38;15.88;;;6.10;66.60;;;;;;4685257;30;114659;-83
2023/04/02 12:54:51;;;;;;;20.88;18.02;;;6.10;66.60;;;;;;4670034;30;116681;-83
2023/04/02 12:57:24;;;;;;;21.70;17.73;;;6.10;66.40;;;;;;4684399;30;114722;-82
2023/04/02 12:59:53;;;;;;;15.80;12.82;;;6.10;66.80;;;;;;4686220;29;114790;-82
2023/04/02 13:02:26;;;;;;;16.60;14.05;;;6.10;66.20;;;;;;4676219;29;114556;-82
2023/04/02 13:05:02;;;;;;;22.00;18.42;;;6.10;66.10;;;;;;4701167;30;114647;-83
2023/04/02 13:07:31;;;;;;;22.63;18.02;;;6.10;66.40;;;;;;4694097;30;114798;-83
2023/04/02 13:10:22;;;;;;;20.13;17.10;;;6.10;66.50;;;;;;4671461;29;114665;-83
2023/04/02 13:12:57;;;;;;;17.33;13.38;;;6.20;66.50;;;;;;4699035;29;114643;-83
2023/04/02 13:15:30;;;;;;;18.35;14.00;;;6.20;66.30;;;;;;4669152;29;118158;-83
2023/04/02 13:18:07;;;;;;;15.55;12.18;;;6.20;66.40;;;;;;4670478;30;116702;-83
2023/04/02 13:20:36;;;;;;;16.33;13.98;;;6.10;65.90;;;;;;4701980;29;114426;-83
2023/04/02 13:23:36;;;;;;;17.08;14.48;;;6.20;65.90;;;;;;4687610;30;114652;-83
2023/04/02 13:26:20;;;;;;;19.40;16.30;;;6.10;65.40;;;;;;4686339;30;118814;-82
2023/04/02 13:29:15;;;;;;;22.13;18.38;;;6.00;65.60;;;;;;4687915;30;114827;-84
2023/04/02 13:31:42;;;;;;;18.73;15.73;;;5.90;65.70;;;;;;4701562;29;114608;-83
2023/04/02 13:34:10;;;;;;;20.35;17.73;;;5.80;65.70;;;;;;4689282;30;114751;-83
2023/04/02 13:36:37;;;;;;;18.58;15.65;;;5.80;65.90;;;;;;4701009;29;115242;-82